Terminal Aerodrome Forecast
Issued by NWS

Home | Current Version | Previous Version | Text Only | Print | Product List | Glossary On
Versions: 1 2 3 4 5 6 7 8 9 10 11 12
000
FTUS45 KREV 041120
TAFTVL
TAF
KTVL 041120Z 0412/0512 VRB03KT P6SM FEW080 BKN160
     FM041700 17009KT P6SM VCSH SCT060 OVC120
     FM042200 19010KT P6SM -SHRA VCTS SCT030CB OVC050
     FM050200 19005KT P6SM -SHRA BKN035 OVC050=

USA.gov is the U.S. government's official web portal to all federal, state and local government web resources and services.